Time;durP1;ratioP1;P1;durP2;ratioP2;P2;SDS_P1;SDS_P2;PMS_P1;PMS_P2;Temp;Humidity;BMP_temperature;BMP_pressure;BME280_temperature;BME280_humidity;BME280_pressure;Samples;Min_cycle;Max_cycle;Signal;HPM_P1;HPM_P2
2021/01/24 00:01:01;;;;;;;16.03;12.03;;;1.10;99.90;;;;;;5073236;28;20171;-90
2021/01/24 00:03:34;;;;;;;15.57;12.33;;;1.10;99.90;;;;;;5075382;28;20176;-88
2021/01/24 00:06:07;;;;;;;15.10;12.40;;;1.00;99.90;;;;;;5075426;28;20237;-89
2021/01/24 00:08:41;;;;;;;14.83;11.83;;;1.10;99.90;;;;;;5077504;28;20164;-89
2021/01/24 00:11:18;;;;;;;18.07;12.70;;;1.00;99.90;;;;;;5075418;28;20184;-89
2021/01/24 00:13:54;;;;;;;13.97;11.73;;;1.00;99.90;;;;;;5075672;28;20180;-89
2021/01/24 00:16:31;;;;;;;14.80;11.80;;;1.00;99.90;;;;;;5075597;28;20183;-89
2021/01/24 00:18:59;;;;;;;15.97;11.60;;;1.10;99.90;;;;;;5075071;28;20205;-89
2021/01/24 00:21:25;;;;;;;15.23;11.70;;;1.00;99.90;;;;;;5076312;28;20180;-89
2021/01/24 00:23:53;;;;;;;15.60;11.80;;;1.00;99.90;;;;;;5075976;28;20175;-89
2021/01/24 00:26:19;;;;;;;19.13;12.40;;;1.00;99.90;;;;;;5074848;28;20245;-89
2021/01/24 00:28:45;;;;;;;17.37;13.27;;;1.10;99.90;;;;;;5076420;28;20650;-89
2021/01/24 00:31:16;;;;;;;15.00;12.13;;;1.00;99.90;;;;;;5074818;28;20177;-88
2021/01/24 00:33:48;;;;;;;16.60;12.40;;;1.00;99.90;;;;;;5074820;28;20246;-88
2021/01/24 00:36:21;;;;;;;17.07;12.30;;;1.00;99.90;;;;;;5074882;28;20183;-88
2021/01/24 00:38:54;;;;;;;14.60;12.23;;;1.00;99.90;;;;;;5075881;28;20195;-88
2021/01/24 00:41:28;;;;;;;14.60;11.60;;;1.00;99.90;;;;;;5075081;28;20179;-89
2021/01/24 00:43:59;;;;;;;14.50;11.70;;;1.00;99.90;;;;;;5074659;28;20175;-88
2021/01/24 00:46:31;;;;;;;15.20;12.27;;;1.00;99.90;;;;;;5076171;28;20207;-88
2021/01/24 00:49:00;;;;;;;15.17;12.00;;;1.00;99.90;;;;;;5074666;28;20199;-88
2021/01/24 00:51:36;;;;;;;18.20;12.83;;;1.00;99.90;;;;;;5074625;28;20175;-89
2021/01/24 00:54:07;;;;;;;13.33;11.20;;;1.00;99.90;;;;;;5075720;28;20175;-88
2021/01/24 00:56:34;;;;;;;14.63;11.67;;;1.00;99.90;;;;;;5075004;28;20708;-90
2021/01/24 00:59:11;;;;;;;16.67;12.70;;;1.00;99.90;;;;;;5074673;28;20199;-90
2021/01/24 01:01:48;;;;;;;20.60;12.27;;;1.00;99.90;;;;;;5074516;28;20182;-90
2021/01/24 01:04:21;;;;;;;13.10;11.23;;;1.00;99.90;;;;;;5075846;28;20172;-90
2021/01/24 01:06:54;;;;;;;17.07;11.57;;;1.00;99.90;;;;;;5074165;28;20286;-90
2021/01/24 01:09:30;;;;;;;16.00;12.50;;;0.90;99.90;;;;;;5073932;28;20752;-89
2021/01/24 01:12:01;;;;;;;15.00;11.97;;;1.00;99.90;;;;;;5074382;28;20175;-89
2021/01/24 01:14:35;;;;;;;15.07;11.27;;;0.90;99.90;;;;;;5072779;28;20168;-89
2021/01/24 01:17:09;;;;;;;19.03;11.83;;;0.90;99.90;;;;;;5074082;28;20198;-89
2021/01/24 01:19:41;;;;;;;14.80;11.87;;;1.00;99.90;;;;;;5073963;28;20202;-89
2021/01/24 01:22:15;;;;;;;16.20;11.70;;;1.00;99.90;;;;;;5075194;28;20177;-89
2021/01/24 01:24:48;;;;;;;16.93;12.07;;;1.00;99.90;;;;;;5075085;28;20190;-89
2021/01/24 01:27:20;;;;;;;18.10;12.50;;;1.00;99.90;;;;;;5074130;28;20184;-88
2021/01/24 01:29:56;;;;;;;20.13;14.17;;;0.90;99.90;;;;;;5074922;28;20220;-89
2021/01/24 01:32:23;;;;;;;19.60;15.03;;;0.80;99.90;;;;;;5074106;28;20191;-89
2021/01/24 01:35:01;;;;;;;20.63;14.80;;;0.70;99.90;;;;;;5073882;28;20168;-88
2021/01/24 01:37:38;;;;;;;19.33;14.63;;;0.70;99.90;;;;;;5073741;28;20187;-89
2021/01/24 01:40:10;;;;;;;22.87;15.60;;;0.70;99.90;;;;;;5073482;28;20662;-88
2021/01/24 01:42:41;;;;;;;19.27;14.30;;;0.70;99.90;;;;;;5074837;28;20175;-88
2021/01/24 01:45:10;;;;;;;17.60;14.40;;;0.70;99.90;;;;;;5073652;28;20279;-89
2021/01/24 01:47:36;;;;;;;20.57;15.17;;;0.70;99.90;;;;;;5073657;28;20173;-88
2021/01/24 01:50:06;;;;;;;18.33;14.17;;;0.70;99.90;;;;;;5073493;28;20659;-89
2021/01/24 01:52:37;;;;;;;22.10;14.80;;;0.70;99.90;;;;;;5073606;28;20244;-88
2021/01/24 01:55:09;;;;;;;19.97;14.90;;;0.70;99.90;;;;;;5073331;28;20179;-89
2021/01/24 01:57:36;;;;;;;24.57;14.83;;;0.80;99.90;;;;;;5073745;28;20182;-89
2021/01/24 02:00:07;;;;;;;20.37;15.40;;;0.80;99.90;;;;;;5074917;28;20191;-88
2021/01/24 02:03:11;;;;;;;19.20;13.63;;;0.80;99.90;;;;;;5073738;28;20175;-90
2021/01/24 02:05:54;;;;;;;17.70;13.70;;;0.80;99.90;;;;;;5073138;28;20195;-89
2021/01/24 02:08:40;;;;;;;18.67;13.63;;;0.70;99.90;;;;;;5073140;28;20694;-89
2021/01/24 02:11:39;;;;;;;19.30;15.30;;;0.70;99.90;;;;;;5073329;28;20191;-88
2021/01/24 02:14:26;;;;;;;19.70;14.53;;;0.70;99.90;;;;;;5074275;28;20171;-88
2021/01/24 02:17:11;;;;;;;20.60;13.70;;;0.70;99.90;;;;;;5072864;28;20175;-88
2021/01/24 02:20:05;;;;;;;18.80;14.90;;;0.70;99.90;;;;;;5074196;28;20668;-88
2021/01/24 02:22:41;;;;;;;18.17;14.23;;;0.70;99.90;;;;;;5072935;28;20228;-88
2021/01/24 02:25:35;;;;;;;18.37;13.70;;;0.70;99.90;;;;;;5072262;28;20196;-88
2021/01/24 02:28:28;;;;;;;20.30;12.93;;;0.60;99.90;;;;;;5072643;28;20169;-88
2021/01/24 02:31:00;;;;;;;17.83;14.03;;;0.60;99.90;;;;;;5073997;28;20256;-88
2021/01/24 02:33:28;;;;;;;18.23;13.17;;;0.60;99.90;;;;;;5073879;28;20176;-88
2021/01/24 02:35:59;;;;;;;19.23;14.60;;;0.60;99.90;;;;;;5073953;28;20255;-88
2021/01/24 02:38:30;;;;;;;18.77;14.27;;;0.70;99.90;;;;;;5072513;28;20208;-88
2021/01/24 02:41:06;;;;;;;19.30;14.27;;;0.60;99.90;;;;;;5073763;28;20175;-88
2021/01/24 02:43:33;;;;;;;21.53;14.40;;;0.60;99.90;;;;;;5072377;28;20175;-88
2021/01/24 02:46:06;;;;;;;22.57;15.20;;;0.50;99.90;;;;;;5072773;28;20624;-88
2021/01/24 02:48:34;;;;;;;22.27;15.20;;;0.50;99.90;;;;;;5072427;28;20171;-88
2021/01/24 02:51:11;;;;;;;21.27;14.53;;;0.50;99.90;;;;;;5072347;28;20228;-88
2021/01/24 02:53:46;;;;;;;22.17;15.07;;;0.50;99.90;;;;;;5072543;28;20172;-88
2021/01/24 02:56:21;;;;;;;19.00;14.13;;;0.50;99.90;;;;;;5072897;28;20691;-88
2021/01/24 02:58:54;;;;;;;21.60;14.50;;;0.50;99.90;;;;;;5072360;28;20619;-88
2021/01/24 03:01:30;;;;;;;21.10;15.33;;;0.50;99.90;;;;;;5072656;28;20185;-88
2021/01/24 03:04:02;;;;;;;22.27;15.93;;;0.40;99.90;;;;;;5073062;28;20253;-87
2021/01/24 03:06:32;;;;;;;20.63;14.80;;;0.40;99.90;;;;;;5072053;28;20290;-88
2021/01/24 03:09:01;;;;;;;18.70;13.53;;;0.40;99.90;;;;;;5073232;28;20215;-88
2021/01/24 03:11:37;;;;;;;24.07;14.53;;;0.40;99.90;;;;;;5072238;28;20198;-88
2021/01/24 03:14:21;;;;;;;18.73;15.37;;;0.40;99.90;;;;;;5072279;28;20180;-88
2021/01/24 03:16:57;;;;;;;20.80;14.67;;;0.40;99.90;;;;;;5072242;28;20175;-88
2021/01/24 03:19:36;;;;;;;17.07;14.07;;;0.40;99.90;;;;;;5073333;28;20249;-88
2021/01/24 03:22:10;;;;;;;18.80;14.17;;;0.30;99.90;;;;;;5072477;28;20177;-88
2021/01/24 03:24:45;;;;;;;16.53;13.27;;;0.40;99.90;;;;;;5072215;28;20171;-88
2021/01/24 03:27:17;;;;;;;16.27;12.50;;;0.40;99.90;;;;;;5072354;28;20190;-88
2021/01/24 03:29:51;;;;;;;17.90;13.43;;;0.40;99.90;;;;;;5071990;28;20224;-88
2021/01/24 03:32:23;;;;;;;26.57;14.57;;;0.40;99.90;;;;;;5073141;28;20179;-88
2021/01/24 03:34:57;;;;;;;27.03;14.97;;;0.40;99.90;;;;;;5071917;28;20167;-88
2021/01/24 03:37:32;;;;;;;21.13;14.50;;;0.40;99.90;;;;;;5074576;28;20173;-88
2021/01/24 03:40:04;;;;;;;17.13;13.63;;;0.40;99.90;;;;;;5075902;28;20724;-88
2021/01/24 03:42:40;;;;;;;22.07;14.20;;;0.40;99.90;;;;;;5077035;28;20163;-88
2021/01/24 03:45:16;;;;;;;17.33;13.60;;;0.40;99.90;;;;;;5075965;28;20174;-88
2021/01/24 03:47:49;;;;;;;19.60;14.27;;;0.40;99.90;;;;;;5077055;28;20171;-88
2021/01/24 03:50:21;;;;;;;18.93;14.10;;;0.40;99.90;;;;;;5076951;28;20188;-88
2021/01/24 03:52:51;;;;;;;19.13;12.97;;;0.40;99.90;;;;;;5076845;28;20169;-88
2021/01/24 03:55:21;;;;;;;18.07;13.63;;;0.50;99.90;;;;;;5075563;28;20181;-88
2021/01/24 03:57:53;;;;;;;18.70;14.23;;;0.40;99.90;;;;;;5075811;28;20544;-88
2021/01/24 04:00:24;;;;;;;17.00;13.27;;;0.30;99.90;;;;;;5075425;28;20574;-88
2021/01/24 04:02:54;;;;;;;17.20;13.83;;;0.30;99.90;;;;;;5075420;28;20258;-88
2021/01/24 04:05:31;;;;;;;19.30;13.00;;;0.40;99.90;;;;;;5075272;28;20333;-88
2021/01/24 04:08:05;;;;;;;22.10;14.23;;;0.30;99.90;;;;;;5075490;28;20547;-88
2021/01/24 04:10:40;;;;;;;18.67;14.40;;;0.40;99.90;;;;;;5077032;28;20282;-88
2021/01/24 04:13:11;;;;;;;16.97;12.77;;;0.40;99.90;;;;;;5075336;28;20175;-88
2021/01/24 04:15:47;;;;;;;19.57;14.70;;;0.40;99.90;;;;;;5075292;28;20552;-88
2021/01/24 04:18:13;;;;;;;20.03;13.90;;;0.50;99.90;;;;;;5076086;28;20181;-88
2021/01/24 04:20:39;;;;;;;17.13;13.90;;;0.40;99.90;;;;;;5075127;28;20195;-88
2021/01/24 04:23:11;;;;;;;27.30;15.40;;;0.50;99.90;;;;;;5074992;28;20184;-88
2021/01/24 04:25:44;;;;;;;21.80;15.43;;;0.40;99.90;;;;;;5076237;28;20195;-88
2021/01/24 04:28:21;;;;;;;20.27;14.43;;;0.40;99.90;;;;;;5075614;28;20586;-88
2021/01/24 04:30:52;;;;;;;18.60;14.33;;;0.30;99.90;;;;;;5074789;28;20195;-88
2021/01/24 04:33:21;;;;;;;24.87;15.93;;;0.20;99.90;;;;;;5074891;28;20176;-88
2021/01/24 04:35:57;;;;;;;24.10;15.73;;;0.20;99.90;;;;;;5076010;28;20258;-88
2021/01/24 04:38:31;;;;;;;19.70;14.90;;;0.10;99.90;;;;;;5074780;28;20179;-88
2021/01/24 04:41:01;;;;;;;23.40;16.47;;;0.10;99.90;;;;;;5075062;28;20178;-88
2021/01/24 04:43:38;;;;;;;23.27;16.83;;;0.20;99.90;;;;;;5074629;28;20258;-88
2021/01/24 04:46:03;;;;;;;23.67;15.93;;;0.10;99.90;;;;;;5075846;28;20175;-88
2021/01/24 04:48:40;;;;;;;22.57;15.57;;;0.30;99.90;;;;;;5075536;28;20221;-88
2021/01/24 04:51:08;;;;;;;19.63;14.20;;;0.30;99.90;;;;;;5075832;28;20169;-88
2021/01/24 04:53:45;;;;;;;18.33;14.70;;;0.30;99.90;;;;;;5074498;28;20204;-88
2021/01/24 04:56:15;;;;;;;21.57;15.47;;;0.20;99.90;;;;;;5075773;28;20155;-88
2021/01/24 04:58:50;;;;;;;20.43;14.97;;;0.30;99.90;;;;;;5074265;28;20217;-88
2021/01/24 05:01:23;;;;;;;21.30;15.80;;;0.30;99.90;;;;;;5074746;28;20171;-88
2021/01/24 05:04:01;;;;;;;25.03;15.77;;;0.30;99.90;;;;;;5075926;28;20196;-88
2021/01/24 05:06:27;;;;;;;21.03;15.20;;;0.30;99.90;;;;;;5075479;28;20602;-88
2021/01/24 05:09:01;;;;;;;20.07;15.00;;;0.30;99.90;;;;;;5074001;28;20264;-88
2021/01/24 05:11:36;;;;;;;22.13;15.10;;;0.30;99.90;;;;;;5074289;28;20647;-88
2021/01/24 05:14:24;;;;;;;23.60;14.83;;;0.30;99.90;;;;;;5074289;28;20180;-88
2021/01/24 05:16:58;;;;;;;23.07;15.83;;;0.30;99.90;;;;;;5075270;28;20697;-88
2021/01/24 05:19:34;;;;;;;19.27;15.13;;;0.30;99.90;;;;;;5075242;28;20197;-88
2021/01/24 05:22:08;;;;;;;21.20;14.87;;;0.40;99.90;;;;;;5074187;28;20643;-88
2021/01/24 05:24:43;;;;;;;27.17;15.77;;;0.30;99.90;;;;;;5074462;28;20180;-88
2021/01/24 05:27:27;;;;;;;20.37;15.90;;;0.30;99.90;;;;;;5073838;28;20195;-88
2021/01/24 05:29:56;;;;;;;22.03;15.50;;;0.30;99.90;;;;;;5073742;28;20195;-88
2021/01/24 05:32:24;;;;;;;24.77;15.10;;;0.30;99.90;;;;;;5075551;28;20186;-88
2021/01/24 05:35:01;;;;;;;20.87;15.00;;;0.30;99.90;;;;;;5073706;28;20176;-88
2021/01/24 05:37:40;;;;;;;25.37;15.53;;;0.30;99.90;;;;;;5073749;28;20661;-88
2021/01/24 05:40:15;;;;;;;21.40;15.53;;;0.40;99.90;;;;;;5073687;28;20681;-88
2021/01/24 05:42:47;;;;;;;21.57;16.23;;;0.40;99.90;;;;;;5073634;28;20703;-88
2021/01/24 05:45:26;;;;;;;22.73;15.50;;;0.40;99.90;;;;;;5074833;28;20248;-88
2021/01/24 05:47:59;;;;;;;25.03;16.43;;;0.40;99.90;;;;;;5073418;28;20169;-88
2021/01/24 05:50:29;;;;;;;21.40;16.40;;;0.40;99.90;;;;;;5073516;28;20202;-88
2021/01/24 05:53:08;;;;;;;19.10;15.00;;;0.40;99.90;;;;;;5074975;28;20589;-88
2021/01/24 05:55:37;;;;;;;21.13;15.73;;;0.40;99.90;;;;;;5073359;28;20175;-88
2021/01/24 05:58:28;;;;;;;21.87;14.73;;;0.40;99.90;;;;;;5074705;28;20154;-88
2021/01/24 06:00:56;;;;;;;19.30;14.47;;;0.50;99.90;;;;;;5073835;28;20269;-88
2021/01/24 06:03:27;;;;;;;21.87;15.97;;;0.40;99.90;;;;;;5073318;28;20650;-88
2021/01/24 06:06:04;;;;;;;25.40;16.83;;;0.40;99.90;;;;;;5073016;28;20231;-88
2021/01/24 06:08:40;;;;;;;22.87;15.33;;;0.30;99.90;;;;;;5074283;28;20212;-88
2021/01/24 06:11:16;;;;;;;21.67;14.80;;;0.40;99.90;;;;;;5073905;28;20597;-88
2021/01/24 06:13:50;;;;;;;21.03;15.20;;;0.40;99.90;;;;;;5074257;28;20305;-88
2021/01/24 06:16:34;;;;;;;22.63;15.37;;;0.40;99.90;;;;;;5072973;28;20178;-88
2021/01/24 06:19:09;;;;;;;19.07;14.17;;;0.40;99.90;;;;;;5073742;28;20655;-88
2021/01/24 06:21:54;;;;;;;18.47;14.10;;;0.50;99.90;;;;;;5072884;28;20175;-88
2021/01/24 06:24:31;;;;;;;20.47;13.33;;;0.40;99.90;;;;;;5074016;28;20168;-88
2021/01/24 06:27:10;;;;;;;21.43;14.03;;;0.50;99.90;;;;;;5072840;28;20203;-88
2021/01/24 06:29:47;;;;;;;18.33;13.10;;;0.50;99.90;;;;;;5072670;28;20195;-88
2021/01/24 06:32:31;;;;;;;18.87;13.67;;;0.50;99.90;;;;;;5072625;28;20236;-88
2021/01/24 06:35:27;;;;;;;21.13;14.13;;;0.50;99.90;;;;;;5072745;28;20647;-88
2021/01/24 06:38:02;;;;;;;20.13;15.00;;;0.50;99.90;;;;;;5073197;28;20254;-88
2021/01/24 06:40:41;;;;;;;21.33;15.40;;;0.50;99.90;;;;;;5074150;28;20250;-88
2021/01/24 06:43:31;;;;;;;22.77;15.70;;;0.50;99.90;;;;;;5072770;28;20169;-87
2021/01/24 06:46:01;;;;;;;17.50;13.93;;;0.60;99.90;;;;;;5073870;28;20274;-88
2021/01/24 06:48:47;;;;;;;17.90;13.90;;;0.60;99.90;;;;;;5072630;28;20175;-88
2021/01/24 06:51:37;;;;;;;21.00;14.23;;;0.60;99.90;;;;;;5073668;28;20226;-88
2021/01/24 06:54:28;;;;;;;19.17;13.60;;;0.50;99.90;;;;;;5072419;28;20258;-88
2021/01/24 06:57:10;;;;;;;21.03;14.10;;;0.50;99.90;;;;;;5073137;28;20185;-88
2021/01/24 06:59:40;;;;;;;19.77;14.57;;;0.50;99.90;;;;;;5072286;28;20204;-88
2021/01/24 07:02:38;;;;;;;19.60;15.27;;;0.50;99.90;;;;;;5073784;28;20665;-88
2021/01/24 07:05:24;;;;;;;22.37;15.47;;;0.40;99.90;;;;;;5039560;28;20187;-88
2021/01/24 07:07:55;;;;;;;21.77;14.73;;;0.40;99.90;;;;;;5072645;28;20611;-88
2021/01/24 07:10:54;;;;;;;23.33;15.20;;;0.30;99.90;;;;;;5072212;28;20209;-88
2021/01/24 07:13:31;;;;;;;20.93;15.13;;;0.30;99.90;;;;;;5065463;28;20190;-88
2021/01/24 07:16:06;;;;;;;18.43;14.43;;;0.30;99.90;;;;;;5073526;28;20163;-88
2021/01/24 07:18:45;;;;;;;18.30;14.23;;;0.20;99.90;;;;;;5073258;28;20260;-88
2021/01/24 07:21:23;;;;;;;17.77;14.00;;;0.20;99.90;;;;;;5072915;28;20175;-88
2021/01/24 07:23:58;;;;;;;17.70;14.07;;;0.30;99.90;;;;;;5072467;28;20179;-88
2021/01/24 07:26:27;;;;;;;18.97;13.17;;;0.30;99.90;;;;;;5071975;28;20655;-88
2021/01/24 07:29:01;;;;;;;18.03;12.80;;;0.30;99.90;;;;;;5073223;28;20183;-88
2021/01/24 07:31:34;;;;;;;20.33;13.70;;;0.30;99.90;;;;;;5073641;28;20578;-88
2021/01/24 07:34:15;;;;;;;21.23;13.97;;;0.20;99.90;;;;;;5072565;28;20176;-88
2021/01/24 07:36:51;;;;;;;19.97;14.30;;;0.20;99.90;;;;;;5073234;28;20548;-88
2021/01/24 07:39:30;;;;;;;22.97;13.63;;;0.20;99.90;;;;;;5073147;28;20684;-88
2021/01/24 07:42:04;;;;;;;18.97;14.27;;;0.20;99.90;;;;;;5073997;28;20626;-88
2021/01/24 07:44:40;;;;;;;19.10;13.53;;;0.20;99.90;;;;;;5072064;28;20179;-88
2021/01/24 07:47:11;;;;;;;18.07;13.33;;;0.20;99.90;;;;;;5071871;28;20233;-88
2021/01/24 07:49:38;;;;;;;18.20;14.53;;;0.30;99.90;;;;;;5071945;28;20197;-88
2021/01/24 07:52:11;;;;;;;20.77;15.63;;;0.20;99.90;;;;;;5071730;28;20584;-88
2021/01/24 07:54:46;;;;;;;21.50;15.57;;;0.20;99.90;;;;;;5071722;28;20172;-88
2021/01/24 07:57:17;;;;;;;22.80;15.80;;;0.10;99.90;;;;;;5073322;28;20165;-88
2021/01/24 07:59:51;;;;;;;26.13;15.97;;;0.10;99.90;;;;;;5071623;28;20203;-88
2021/01/24 08:02:21;;;;;;;20.87;15.67;;;0.00;99.90;;;;;;5071703;28;20179;-88
2021/01/24 08:04:51;;;;;;;23.17;16.47;;;-0.10;99.90;;;;;;5071578;28;20178;-88
2021/01/24 08:07:21;;;;;;;22.33;15.70;;;-0.10;99.90;;;;;;5072850;28;20662;-88
2021/01/24 08:09:54;;;;;;;28.37;17.87;;;-0.10;99.90;;;;;;5094336;22;20223;-89
2021/01/24 08:12:21;;;;;;;24.80;17.63;;;-0.10;99.90;;;;;;5071899;28;20267;-89
2021/01/24 08:14:57;;;;;;;24.40;17.33;;;0.00;99.90;;;;;;5071512;28;20179;-89
2021/01/24 08:17:34;;;;;;;30.87;17.57;;;0.00;99.90;;;;;;5071766;28;20172;-90
2021/01/24 08:20:07;;;;;;;23.80;17.73;;;0.00;99.90;;;;;;5072632;28;20191;-89
2021/01/24 08:22:39;;;;;;;31.73;19.37;;;0.00;99.90;;;;;;5071746;28;20175;-89
2021/01/24 08:25:17;;;;;;;27.77;18.67;;;0.20;99.90;;;;;;5074604;28;20202;-90
2021/01/24 08:27:45;;;;;;;24.50;18.33;;;0.20;99.90;;;;;;5075686;28;20198;-89
2021/01/24 08:30:21;;;;;;;29.07;18.47;;;0.30;99.90;;;;;;5074939;28;20191;-89
2021/01/24 08:32:54;;;;;;;30.07;19.77;;;0.30;99.90;;;;;;5075694;28;20217;-89
2021/01/24 08:35:20;;;;;;;28.13;18.87;;;0.40;99.90;;;;;;5074877;28;20666;-89
2021/01/24 08:37:49;;;;;;;27.93;18.93;;;0.50;99.90;;;;;;5074757;28;20215;-89
2021/01/24 08:40:17;;;;;;;31.77;18.43;;;0.50;99.90;;;;;;5074769;28;20659;-89
2021/01/24 08:42:57;;;;;;;29.87;19.80;;;0.60;99.90;;;;;;5074823;28;20175;-89
2021/01/24 08:45:30;;;;;;;29.43;19.63;;;0.60;99.90;;;;;;5074759;28;20195;-89
2021/01/24 08:48:04;;;;;;;24.03;18.23;;;0.70;99.90;;;;;;5074599;28;20182;-89
2021/01/24 08:50:37;;;;;;;30.17;19.27;;;0.60;99.90;;;;;;5074522;28;20191;-89
2021/01/24 08:53:05;;;;;;;26.80;19.70;;;0.60;99.90;;;;;;5074417;28;20666;-89
2021/01/24 08:55:50;;;;;;;26.67;19.07;;;0.70;99.90;;;;;;5075673;28;20236;-89
2021/01/24 08:58:30;;;;;;;30.50;19.43;;;0.60;99.90;;;;;;5074406;28;20171;-89
2021/01/24 09:01:11;;;;;;;25.43;19.37;;;0.70;99.90;;;;;;5074567;28;20222;-89
2021/01/24 09:03:42;;;;;;;26.57;19.00;;;0.70;99.90;;;;;;5075606;28;20153;-89
2021/01/24 09:06:18;;;;;;;27.90;19.63;;;0.80;99.90;;;;;;5075102;28;20187;-89
2021/01/24 09:08:53;;;;;;;28.90;19.23;;;0.70;99.90;;;;;;5074289;28;20174;-89
2021/01/24 09:11:20;;;;;;;31.30;19.83;;;0.80;99.90;;;;;;5074648;28;20218;-89
2021/01/24 09:13:47;;;;;;;26.73;18.33;;;0.90;99.90;;;;;;5075507;28;20162;-89
2021/01/24 09:16:20;;;;;;;28.27;18.63;;;0.80;99.90;;;;;;5074454;28;20588;-89
2021/01/24 09:18:50;;;;;;;24.47;18.70;;;0.90;99.90;;;;;;5074367;28;20624;-89
2021/01/24 09:21:18;;;;;;;28.93;18.90;;;1.00;99.90;;;;;;5073934;28;20205;-89
2021/01/24 09:23:49;;;;;;;28.10;18.83;;;1.10;99.90;;;;;;5074003;28;20187;-89
2021/01/24 09:26:17;;;;;;;31.53;19.30;;;1.10;99.90;;;;;;5074178;28;20231;-89
2021/01/24 09:28:45;;;;;;;29.67;19.47;;;1.10;99.90;;;;;;5074010;28;20546;-89
2021/01/24 09:31:18;;;;;;;29.30;19.03;;;1.00;99.90;;;;;;5073710;28;20188;-89
2021/01/24 09:33:50;;;;;;;23.30;17.60;;;1.10;99.90;;;;;;5074281;28;20175;-89
2021/01/24 09:36:21;;;;;;;26.97;18.73;;;1.10;99.90;;;;;;5072928;28;20174;-89
2021/01/24 09:38:56;;;;;;;24.93;18.10;;;1.10;99.90;;;;;;5073714;28;20176;-89
2021/01/24 09:41:28;;;;;;;24.83;19.00;;;1.10;99.90;;;;;;5073604;28;20244;-88
2021/01/24 09:44:04;;;;;;;29.20;18.87;;;1.10;99.90;;;;;;5073613;28;20167;-88
2021/01/24 09:46:36;;;;;;;25.73;17.73;;;1.10;99.90;;;;;;5073622;28;20193;-89
2021/01/24 09:49:10;;;;;;;27.27;18.80;;;1.20;99.90;;;;;;5073471;28;20256;-89
2021/01/24 09:51:41;;;;;;;27.57;19.50;;;1.30;99.90;;;;;;5073920;28;20197;-89
2021/01/24 09:54:17;;;;;;;24.53;18.67;;;1.30;99.90;;;;;;5074500;28;20742;-88
2021/01/24 09:56:51;;;;;;;29.70;18.63;;;1.30;99.90;;;;;;5073483;28;20545;-89
2021/01/24 09:59:21;;;;;;;26.33;18.20;;;1.40;99.90;;;;;;5073163;28;20175;-88
2021/01/24 10:01:55;;;;;;;27.73;19.43;;;1.40;99.90;;;;;;5074444;28;20255;-88
2021/01/24 10:04:28;;;;;;;32.40;21.23;;;1.40;99.90;;;;;;5073302;28;20188;-89
2021/01/24 10:06:54;;;;;;;28.47;21.57;;;1.50;99.90;;;;;;5073101;28;20188;-88
2021/01/24 10:09:27;;;;;;;32.10;20.77;;;1.50;99.90;;;;;;5072789;28;20734;-88
2021/01/24 10:12:00;;;;;;;26.93;20.00;;;1.50;99.90;;;;;;5074725;28;20199;-89
2021/01/24 10:14:35;;;;;;;26.40;20.13;;;1.50;99.90;;;;;;5074117;28;20168;-89
2021/01/24 10:17:10;;;;;;;30.27;21.23;;;1.60;99.90;;;;;;5072852;28;20175;-89
2021/01/24 10:19:41;;;;;;;31.70;20.67;;;1.70;99.90;;;;;;5073041;28;20687;-89
2021/01/24 10:22:18;;;;;;;27.70;21.07;;;1.70;99.90;;;;;;5072743;28;20217;-89
2021/01/24 10:24:51;;;;;;;30.67;20.43;;;1.60;99.90;;;;;;5072826;28;20176;-89
2021/01/24 10:27:18;;;;;;;28.30;21.50;;;1.70;99.90;;;;;;5072499;28;20192;-89
2021/01/24 10:29:44;;;;;;;33.50;21.73;;;1.70;99.90;;;;;;5072512;28;20196;-89
2021/01/24 10:32:16;;;;;;;31.37;21.60;;;1.70;99.90;;;;;;5072920;28;20214;-90
2021/01/24 10:34:49;;;;;;;28.87;20.97;;;1.70;99.90;;;;;;5072855;28;20188;-89
2021/01/24 10:37:20;;;;;;;33.90;21.47;;;1.60;99.90;;;;;;5072909;28;20639;-89
2021/01/24 10:39:52;;;;;;;33.13;21.03;;;1.70;99.90;;;;;;5072856;28;20551;-89
2021/01/24 10:42:26;;;;;;;33.23;22.13;;;1.80;99.90;;;;;;5073660;28;20560;-89
2021/01/24 10:45:06;;;;;;;32.33;21.73;;;1.70;99.90;;;;;;5073555;28;20543;-89
2021/01/24 10:47:40;;;;;;;33.80;21.90;;;1.70;99.90;;;;;;5072422;28;20221;-89
2021/01/24 10:50:17;;;;;;;31.97;20.17;;;1.80;99.90;;;;;;5072335;28;20197;-88
2021/01/24 10:52:51;;;;;;;30.07;20.20;;;1.90;99.90;;;;;;5073373;28;20257;-89
2021/01/24 10:55:27;;;;;;;26.37;19.73;;;1.90;99.90;;;;;;5072198;28;20169;-89
2021/01/24 10:57:57;;;;;;;25.33;19.00;;;1.90;99.90;;;;;;5072290;28;20202;-89
2021/01/24 11:00:29;;;;;;;25.53;19.20;;;2.00;99.90;;;;;;5073489;28;20193;-89
2021/01/24 11:03:04;;;;;;;29.77;19.57;;;2.00;99.90;;;;;;5073527;28;20251;-89
2021/01/24 11:05:38;;;;;;;29.73;20.00;;;2.10;99.90;;;;;;5073262;28;20677;-89
2021/01/24 11:08:10;;;;;;;27.50;18.43;;;2.10;99.90;;;;;;5072177;28;20244;-89
2021/01/24 11:10:40;;;;;;;26.30;19.10;;;2.20;99.90;;;;;;5073487;28;20208;-88
2021/01/24 11:13:15;;;;;;;27.87;19.80;;;2.20;99.90;;;;;;5073207;28;20559;-89
2021/01/24 11:15:47;;;;;;;26.90;19.47;;;2.20;99.90;;;;;;5073275;28;20176;-88
2021/01/24 11:18:24;;;;;;;30.33;19.40;;;2.20;99.90;;;;;;5071937;28;20175;-88
2021/01/24 11:20:59;;;;;;;33.10;19.67;;;2.20;99.90;;;;;;5071864;28;20221;-88
2021/01/24 11:23:31;;;;;;;34.20;21.77;;;2.20;99.90;;;;;;5071825;28;20180;-88
2021/01/24 11:25:57;;;;;;;28.10;19.93;;;2.30;99.90;;;;;;5071845;28;20562;-88
2021/01/24 11:28:23;;;;;;;34.00;21.97;;;2.30;99.90;;;;;;5073242;28;20164;-88
2021/01/24 11:30:49;;;;;;;25.77;20.13;;;2.30;99.90;;;;;;5072973;28;20227;-88
2021/01/24 11:33:17;;;;;;;30.13;19.83;;;2.30;99.90;;;;;;5073296;28;20176;-88
2021/01/24 11:35:45;;;;;;;25.73;19.47;;;2.40;99.90;;;;;;5073057;28;20576;-88
2021/01/24 11:38:11;;;;;;;27.93;19.40;;;2.40;99.90;;;;;;5073377;28;20640;-88
2021/01/24 11:40:40;;;;;;;29.30;20.07;;;2.40;99.90;;;;;;5071710;28;20194;-88
2021/01/24 11:43:11;;;;;;;28.57;18.90;;;2.40;99.90;;;;;;5071804;28;20189;-88
2021/01/24 11:45:46;;;;;;;25.80;19.43;;;2.40;99.90;;;;;;5072964;28;20197;-88
2021/01/24 11:48:12;;;;;;;26.90;19.03;;;2.50;99.90;;;;;;5073062;28;20159;-88
2021/01/24 11:50:40;;;;;;;27.20;18.67;;;2.50;99.90;;;;;;5072835;28;20194;-88
2021/01/24 11:53:09;;;;;;;25.03;18.67;;;2.50;99.90;;;;;;5071974;28;20173;-88
2021/01/24 11:55:39;;;;;;;23.37;16.90;;;2.50;99.90;;;;;;5071847;28;20183;-88
2021/01/24 11:58:07;;;;;;;22.50;17.30;;;2.60;99.90;;;;;;5071792;28;20247;-88
2021/01/24 12:00:41;;;;;;;23.03;16.77;;;2.60;99.90;;;;;;5076473;28;20687;-88
2021/01/24 12:03:16;;;;;;;24.27;17.40;;;2.50;99.90;;;;;;5076891;28;20190;-88
2021/01/24 12:05:51;;;;;;;26.37;18.17;;;2.60;99.90;;;;;;5075626;28;20223;-88
2021/01/24 12:08:27;;;;;;;25.80;17.87;;;2.60;99.90;;;;;;5075288;28;20161;-87
2021/01/24 12:11:05;;;;;;;31.00;19.17;;;2.60;99.90;;;;;;5076431;28;20284;-88
2021/01/24 12:13:40;;;;;;;24.93;19.07;;;2.60;99.90;;;;;;5076360;28;20246;-88
2021/01/24 12:16:13;;;;;;;26.33;19.63;;;2.70;99.90;;;;;;5076876;28;20166;-88
2021/01/24 12:18:51;;;;;;;31.63;20.60;;;2.70;99.90;;;;;;5075515;28;20184;-88
2021/01/24 12:21:26;;;;;;;27.77;20.50;;;2.80;99.90;;;;;;5076046;28;20199;-88
2021/01/24 12:24:00;;;;;;;31.00;20.40;;;2.80;99.90;;;;;;5075089;28;20166;-88
2021/01/24 12:26:31;;;;;;;26.40;18.00;;;2.80;99.90;;;;;;5074739;28;20279;-88
2021/01/24 12:29:03;;;;;;;28.13;19.37;;;2.80;99.90;;;;;;5074854;28;20178;-88
2021/01/24 12:31:31;;;;;;;28.53;19.53;;;2.80;99.90;;;;;;5075002;28;20226;-88
2021/01/24 12:34:06;;;;;;;26.07;18.87;;;2.80;99.90;;;;;;5074845;28;20264;-88
2021/01/24 12:36:38;;;;;;;26.33;17.80;;;2.90;99.90;;;;;;5075837;28;20549;-88
2021/01/24 12:39:10;;;;;;;27.50;18.60;;;2.90;99.90;;;;;;5075808;28;20181;-88
2021/01/24 12:41:47;;;;;;;23.73;17.77;;;2.80;99.90;;;;;;5074621;28;20206;-88
2021/01/24 12:44:19;;;;;;;22.13;17.23;;;2.70;99.90;;;;;;5075790;28;20178;-88
2021/01/24 12:46:51;;;;;;;26.10;19.07;;;2.80;99.90;;;;;;5076044;28;20197;-88
2021/01/24 12:49:22;;;;;;;25.20;19.50;;;2.70;99.90;;;;;;5075899;28;20166;-87
2021/01/24 12:51:50;;;;;;;27.87;18.17;;;2.80;99.90;;;;;;5074469;28;20177;-87
2021/01/24 12:54:21;;;;;;;25.70;18.27;;;2.70;99.90;;;;;;5074642;28;20209;-88
2021/01/24 12:56:53;;;;;;;27.80;20.10;;;2.80;99.90;;;;;;5074522;28;20265;-88
2021/01/24 12:59:27;;;;;;;28.93;20.07;;;2.70;99.90;;;;;;5074318;28;20251;-88
2021/01/24 13:02:08;;;;;;;26.00;19.13;;;2.70;99.90;;;;;;5074292;28;20591;-88
2021/01/24 13:04:41;;;;;;;26.93;20.10;;;2.60;99.90;;;;;;5074293;28;20185;-88
2021/01/24 13:07:12;;;;;;;28.37;19.83;;;2.60;99.90;;;;;;5074245;28;20288;-88
2021/01/24 13:09:43;;;;;;;29.93;18.93;;;2.50;99.90;;;;;;5073664;28;20201;-88